SUD021 NFFN-PHNL
Flight info
| Callsign | SUD021 |
|---|---|
| Flight time | N/A |
| Altitude | 37000 |
| Route | ALPHA KABAR A579 CUFFY/N0488F390 A579 CARRP OPACA4 |
| Aircraft | A35K/H-SDE2E3GHIJ3J4J5LM1ORWXY/LB1D1 |
Departure
| Time | 2026-05-08 17:25 |
|---|---|
| Airport | Nadi International Airport (NFFN) |
Arrival
| Time | N/A |
|---|---|
| Airport | Daniel K. Inouye International Airport (PHNL) |
| Time | Latitude | Longitude | Altitude | Speed | Heading |
|---|---|---|---|---|---|
| 2026-05-08 17:03 | -17.75136 | 177.45128 | 52 ft | 0 kts | 193° |
| 2026-05-08 17:13 | -17.75130 | 177.45129 | 55 ft | 2 kts | 193° |
| 2026-05-08 17:13 | -17.75115 | 177.45133 | 54 ft | 2 kts | 193° |
| 2026-05-08 17:13 | -17.75099 | 177.45136 | 51 ft | 3 kts | 199° |
| 2026-05-08 17:13 | -17.75086 | 177.45141 | 56 ft | 1 kts | 225° |
| 2026-05-08 17:14 | -17.75090 | 177.45134 | 53 ft | 1 kts | 246° |
| 2026-05-08 17:14 | -17.75089 | 177.45126 | 53 ft | 2 kts | 270° |
| 2026-05-08 17:14 | -17.75089 | 177.45105 | 53 ft | 4 kts | 269° |
| 2026-05-08 17:14 | -17.75092 | 177.45064 | 53 ft | 7 kts | 262° |
| 2026-05-08 17:15 | -17.75114 | 177.45012 | 54 ft | 9 kts | 240° |
| 2026-05-08 17:15 | -17.75145 | 177.44946 | 53 ft | 11 kts | 251° |
| 2026-05-08 17:15 | -17.75147 | 177.44856 | 60 ft | 13 kts | 279° |
| 2026-05-08 17:15 | -17.75126 | 177.44754 | 53 ft | 16 kts | 284° |
| 2026-05-08 17:16 | -17.75144 | 177.44638 | 51 ft | 18 kts | 233° |
| 2026-05-08 17:16 | -17.75246 | 177.44548 | 49 ft | 20 kts | 216° |
| 2026-05-08 17:16 | -17.75361 | 177.44454 | 48 ft | 22 kts | 216° |
| 2026-05-08 17:16 | -17.75488 | 177.44354 | 48 ft | 24 kts | 219° |
| 2026-05-08 17:17 | -17.75616 | 177.44250 | 54 ft | 24 kts | 218° |
| 2026-05-08 17:17 | -17.75750 | 177.44141 | 49 ft | 25 kts | 217° |
| 2026-05-08 17:17 | -17.75892 | 177.44026 | 48 ft | 26 kts | 217° |
| 2026-05-08 17:17 | -17.76045 | 177.43903 | 49 ft | 29 kts | 218° |
| 2026-05-08 17:18 | -17.76208 | 177.43772 | 48 ft | 31 kts | 218° |
| 2026-05-08 17:18 | -17.76380 | 177.43631 | 47 ft | 32 kts | 219° |
| 2026-05-08 17:18 | -17.76558 | 177.43489 | 46 ft | 33 kts | 217° |
| 2026-05-08 17:18 | -17.76741 | 177.43343 | 46 ft | 34 kts | 217° |
| 2026-05-08 17:19 | -17.76929 | 177.43190 | 44 ft | 29 kts | 218° |
| 2026-05-08 17:19 | -17.77096 | 177.43054 | 43 ft | 31 kts | 217° |
| 2026-05-08 17:19 | -17.77198 | 177.42972 | 42 ft | 17 kts | 220° |
| 2026-05-08 17:19 | -17.77245 | 177.42890 | 46 ft | 12 kts | 251° |
| 2026-05-08 17:20 | -17.77296 | 177.42859 | 46 ft | 5 kts | 149° |
| 2026-05-08 17:20 | -17.77298 | 177.42865 | 46 ft | 3 kts | 117° |
| 2026-05-08 17:21 | -17.77298 | 177.42870 | 46 ft | 3 kts | 102° |
| 2026-05-08 17:21 | -17.77294 | 177.42880 | 46 ft | 2 kts | 69° |
| 2026-05-08 17:22 | -17.77274 | 177.42906 | 44 ft | 7 kts | 44° |
| 2026-05-08 17:22 | -17.77237 | 177.42939 | 43 ft | 0 kts | 38° |
| 2026-05-08 17:24 | -17.77104 | 177.43048 | 45 ft | 65 kts | 38° |
| 2026-05-08 17:24 | -17.76527 | 177.43514 | 46 ft | 141 kts | 38° |
| 2026-05-08 17:24 | -17.75576 | 177.44267 | 240 ft | 192 kts | 37° |
| 2026-05-08 17:25 | -17.74439 | 177.45139 | 858 ft | 212 kts | 37° |
| 2026-05-08 17:25 | -17.73161 | 177.46064 | 1535 ft | 238 kts | 31° |
| 2026-05-08 17:25 | -17.71475 | 177.46383 | 2302 ft | 256 kts | 352° |
| 2026-05-08 17:25 | -17.69707 | 177.46306 | 3138 ft | 257 kts | 9° |
| 2026-05-08 17:26 | -17.68008 | 177.46963 | 3735 ft | 265 kts | 27° |
| 2026-05-08 17:26 | -17.66445 | 177.48025 | 4365 ft | 271 kts | 34° |
| 2026-05-08 17:26 | -17.64930 | 177.49227 | 4983 ft | 276 kts | 36° |
| 2026-05-08 17:26 | -17.63388 | 177.50449 | 5582 ft | 281 kts | 35° |
| 2026-05-08 17:27 | -17.61780 | 177.51643 | 6158 ft | 286 kts | 33° |
| 2026-05-08 17:27 | -17.60107 | 177.52798 | 6702 ft | 291 kts | 32° |
| 2026-05-08 17:27 | -17.58381 | 177.53924 | 7288 ft | 292 kts | 31° |
| 2026-05-08 17:27 | -17.56634 | 177.55026 | 7920 ft | 293 kts | 30° |
| 2026-05-08 17:28 | -17.54875 | 177.56119 | 8540 ft | 295 kts | 30° |
| 2026-05-08 17:28 | -17.53105 | 177.57213 | 9172 ft | 297 kts | 30° |
| 2026-05-08 17:28 | -17.51323 | 177.58317 | 9804 ft | 299 kts | 31° |
| 2026-05-08 17:28 | -17.49521 | 177.59436 | 10271 ft | 305 kts | 31° |
| 2026-05-08 17:29 | -17.47653 | 177.60600 | 10522 ft | 320 kts | 31° |
| 2026-05-08 17:29 | -17.45702 | 177.61817 | 10740 ft | 334 kts | 31° |
| 2026-05-08 17:29 | -17.43663 | 177.63091 | 10958 ft | 347 kts | 31° |
| 2026-05-08 17:29 | -17.41552 | 177.64411 | 11196 ft | 360 kts | 31° |
| 2026-05-08 17:30 | -17.39379 | 177.65768 | 11534 ft | 367 kts | 31° |
| 2026-05-08 17:30 | -17.37172 | 177.67146 | 11961 ft | 371 kts | 31° |
| 2026-05-08 17:30 | -17.34936 | 177.68540 | 12373 ft | 377 kts | 31° |
| 2026-05-08 17:30 | -17.32677 | 177.69947 | 12882 ft | 378 kts | 32° |
| 2026-05-08 17:31 | -17.30412 | 177.71360 | 13378 ft | 380 kts | 32° |
| 2026-05-08 17:31 | -17.28129 | 177.72784 | 13843 ft | 383 kts | 32° |
| 2026-05-08 17:31 | -17.25833 | 177.74218 | 14248 ft | 386 kts | 32° |
| 2026-05-08 17:31 | -17.23519 | 177.75661 | 14657 ft | 389 kts | 32° |
| 2026-05-08 17:32 | -17.21182 | 177.77117 | 15068 ft | 391 kts | 32° |
| 2026-05-08 17:32 | -17.18838 | 177.78578 | 15493 ft | 394 kts | 32° |
| 2026-05-08 17:32 | -17.16474 | 177.80050 | 15899 ft | 397 kts | 32° |
| 2026-05-08 17:32 | -17.14094 | 177.81531 | 16300 ft | 400 kts | 32° |
| 2026-05-08 17:33 | -17.11698 | 177.83022 | 16746 ft | 402 kts | 32° |
| 2026-05-08 17:33 | -17.09286 | 177.84522 | 17151 ft | 405 kts | 32° |
| 2026-05-08 17:33 | -17.06850 | 177.86037 | 17562 ft | 408 kts | 32° |
| 2026-05-08 17:33 | -17.04438 | 177.87537 | 17964 ft | 411 kts | 32° |
| 2026-05-08 17:34 | -17.01972 | 177.89068 | 18314 ft | 415 kts | 32° |
| 2026-05-08 17:34 | -16.99478 | 177.90618 | 18617 ft | 418 kts | 32° |
| 2026-05-08 17:34 | -16.96968 | 177.92177 | 18958 ft | 421 kts | 32° |
| 2026-05-08 17:34 | -16.94444 | 177.93744 | 19288 ft | 424 kts | 32° |
| 2026-05-08 17:35 | -16.93222 | 177.94503 | 19456 ft | 425 kts | 32° |